createdAt,value
2018-09-09T17:03:49.890Z,24.11
2018-09-09T17:06:19.072Z,23.87
2018-09-09T17:08:48.340Z,23.81
2018-09-09T17:11:17.505Z,23.62
2018-09-09T17:13:46.606Z,23.62
2018-09-09T17:16:16.004Z,23.51
2018-09-09T17:18:45.094Z,23.34
2018-09-09T17:21:14.205Z,23.19
2018-09-09T17:23:43.526Z,22.85
2018-09-09T17:26:12.682Z,22.76
2018-09-09T17:28:41.861Z,22.71
2018-09-09T17:31:10.964Z,22.28
2018-09-09T17:33:40.166Z,22.11
2018-09-09T17:36:09.273Z,22.10
2018-09-09T17:38:38.386Z,22.09
2018-09-09T17:41:07.633Z,22.09
2018-09-09T17:43:36.765Z,22.03
2018-09-09T17:46:05.957Z,21.72
2018-09-09T17:48:35.469Z,21.40
2018-09-09T17:51:04.732Z,21.31
2018-09-09T17:53:34.310Z,21.17
2018-09-09T17:56:03.477Z,21.04
2018-09-09T17:58:32.672Z,21.12
2018-09-09T18:01:02.135Z,20.75
2018-09-09T18:03:31.277Z,20.67
2018-09-09T18:06:00.421Z,20.65
2018-09-09T18:08:29.973Z,20.74
2018-09-09T18:10:59.173Z,20.82
2018-09-09T18:13:28.254Z,20.81
2018-09-09T18:15:57.365Z,20.38
2018-09-09T18:18:26.477Z,20.45
2018-09-09T18:20:55.821Z,20.37
2018-09-09T18:23:25.019Z,20.29
2018-09-09T18:25:54.151Z,20.35
2018-09-09T18:28:23.349Z,20.27
2018-09-09T18:30:52.486Z,20.25
2018-09-09T18:33:21.630Z,20.00
2018-09-09T18:35:50.804Z,19.87
2018-09-09T18:38:19.960Z,19.97
2018-09-09T18:40:49.129Z,19.80
2018-09-09T18:43:18.318Z,19.78
2018-09-09T18:45:47.425Z,19.73
2018-09-09T18:48:16.562Z,19.61
2018-09-09T18:50:45.721Z,19.44
2018-09-09T18:53:14.812Z,19.57
2018-09-09T18:55:43.934Z,19.54
2018-09-09T18:58:13.114Z,19.32
2018-09-09T19:00:42.218Z,19.30
2018-09-09T19:03:11.372Z,19.35
2018-09-09T19:05:40.570Z,19.35
2018-09-09T19:08:09.688Z,19.42
2018-09-09T19:10:38.852Z,19.29
2018-09-09T19:13:08.078Z,19.09
2018-09-09T19:15:37.262Z,19.06
2018-09-09T19:18:06.466Z,18.93
2018-09-09T19:20:35.664Z,19.00
2018-09-09T19:23:04.860Z,18.93
2018-09-09T19:25:33.990Z,18.86
2018-09-09T19:28:03.086Z,18.98
2018-09-09T19:30:32.186Z,18.68
2018-09-09T19:33:01.541Z,18.59
2018-09-09T19:35:30.637Z,18.49
2018-09-09T19:37:59.732Z,18.56
2018-09-09T19:40:28.853Z,18.49
2018-09-09T19:42:58.110Z,18.57
2018-09-09T19:45:27.225Z,18.53
2018-09-09T19:47:56.461Z,18.39
2018-09-09T19:50:25.644Z,18.41
2018-09-09T19:52:54.762Z,18.31
2018-09-09T19:55:23.852Z,18.22
2018-09-09T19:57:52.968Z,18.06
2018-09-09T20:00:22.100Z,18.21
2018-09-09T20:02:51.416Z,18.10
2018-09-09T20:05:20.813Z,18.21
2018-09-09T20:07:49.936Z,18.11
2018-09-09T20:10:19.172Z,17.91
2018-09-09T20:12:48.343Z,17.74
2018-09-09T20:15:17.520Z,17.71
2018-09-09T20:17:46.798Z,17.78
2018-09-09T20:20:15.988Z,17.76
2018-09-09T20:22:45.178Z,17.78
2018-09-09T20:25:14.280Z,17.88
2018-09-09T20:27:43.409Z,17.74
2018-09-09T20:30:12.505Z,17.60
2018-09-09T20:32:41.720Z,17.64
2018-09-09T20:35:10.794Z,17.48
2018-09-09T20:37:39.975Z,17.47
2018-09-09T20:40:09.088Z,17.28
2018-09-09T20:42:38.265Z,17.42
2018-09-09T20:45:07.559Z,17.30
2018-09-09T20:47:36.837Z,17.33
2018-09-09T20:50:06.052Z,17.41
2018-09-09T20:52:35.167Z,17.52
2018-09-09T20:55:04.378Z,17.41
2018-09-09T20:57:33.529Z,17.37
2018-09-09T21:00:02.647Z,17.40
2018-09-09T21:02:32.105Z,17.23
2018-09-09T21:05:01.186Z,17.11
2018-09-09T21:07:30.389Z,17.17
2018-09-09T21:09:59.580Z,17.08
2018-09-09T21:12:28.678Z,17.00
2018-09-09T21:14:57.844Z,17.05
2018-09-09T21:17:26.966Z,17.14
2018-09-09T21:19:56.079Z,17.13
2018-09-09T21:22:25.354Z,17.16
2018-09-09T21:24:54.473Z,17.07
2018-09-09T21:27:23.558Z,16.98
2018-09-09T21:29:52.712Z,16.95
2018-09-09T21:32:22.033Z,17.00
2018-09-09T21:34:51.205Z,16.70
2018-09-09T21:37:20.302Z,16.69
2018-09-09T21:39:49.716Z,16.65
2018-09-09T21:42:18.907Z,16.76
2018-09-09T21:44:48.229Z,16.62
2018-09-09T21:47:17.410Z,16.84
2018-09-09T21:49:46.579Z,16.67
2018-09-09T21:52:15.689Z,16.64
2018-09-09T21:54:44.789Z,16.66
2018-09-09T21:57:13.957Z,16.45
2018-09-09T21:59:43.056Z,16.48
2018-09-09T22:02:12.204Z,16.33
2018-09-09T22:04:41.330Z,16.46
2018-09-09T22:07:11.410Z,16.20
2018-09-09T22:09:41.517Z,16.17
2018-09-09T22:12:11.500Z,16.19
2018-09-09T22:14:41.217Z,16.06
2018-09-09T22:17:11.116Z,16.19
2018-09-09T22:19:40.387Z,16.20
2018-09-09T22:22:09.613Z,16.27
2018-09-09T22:24:38.795Z,16.19
2018-09-09T22:27:07.912Z,16.23
2018-09-09T22:29:37.164Z,16.14
2018-09-09T22:32:06.282Z,16.08
2018-09-09T22:34:35.425Z,16.27
2018-09-09T22:37:04.561Z,16.12
2018-09-09T22:39:33.684Z,16.13
2018-09-09T22:42:02.796Z,16.07
2018-09-09T22:44:31.990Z,16.08
2018-09-09T22:47:01.216Z,15.97
2018-09-09T22:49:30.364Z,15.97
2018-09-09T22:51:59.491Z,15.99
2018-09-09T22:54:28.602Z,15.95
2018-09-09T22:56:57.716Z,16.02
2018-09-09T22:59:27.394Z,16.01
2018-09-09T23:01:56.501Z,16.00
2018-09-09T23:04:25.696Z,15.86
2018-09-09T23:06:54.872Z,15.83
2018-09-09T23:09:23.996Z,15.91
2018-09-09T23:11:53.168Z,15.81
2018-09-09T23:14:22.314Z,15.76
2018-09-09T23:16:51.491Z,15.81
2018-09-09T23:19:20.597Z,15.86
2018-09-09T23:21:49.774Z,15.81
2018-09-09T23:24:19.015Z,15.83
2018-09-09T23:26:48.174Z,15.89
2018-09-09T23:29:17.436Z,15.94
2018-09-09T23:31:46.573Z,15.87
2018-09-09T23:34:15.740Z,15.86
2018-09-09T23:36:44.881Z,15.59
2018-09-09T23:39:14.009Z,15.82
2018-09-09T23:41:43.101Z,15.71
2018-09-09T23:44:12.370Z,15.47
2018-09-09T23:46:41.493Z,15.41
2018-09-09T23:49:10.614Z,15.38
2018-09-09T23:51:39.933Z,15.31
2018-09-09T23:54:09.217Z,15.42
2018-09-09T23:56:38.697Z,15.45
2018-09-09T23:59:07.849Z,15.40
